• Join FlightAware (Why Join?)
  • Login
  • US Flag 
06:03PM EDT


 

Airport Tracker/Info


-or-


 

Live Flight TrackerFlight Track Log ✈ N775AH ✈ 22-Apr-2013 ✈ KJYO - KRDU

Flight Track Log - Related Links

Times and Time Zones

All times are in EDT time to prevent confusion due to time zone crossing. See the N775AH flight status page for this flight to view local times or setup timezone preferences in your user account.

Time Position Orientation Groundspeed Altitude Reporting Facility
EDT Latitude Longitude Course Direction KTS MPH feet Rate Location/Type
10:35PM 38.5000 -78.0667 195° South 174 200 6,300  Level Potomac TRACON
10:36PM 38.4500 -78.0833 195° South 172 198 5,800 -600 Descending Potomac TRACON
10:37PM 38.4000 -78.0833 180° South 173 199 5,200 -600 Descending Potomac TRACON
10:38PM 38.3500 -78.1000 195° South 184 212 4,700 -360 Descending Potomac TRACON
10:39PM 38.3000 -78.1167 195° South 188 216 4,500 -120 Descending Potomac TRACON
10:40PM 38.2500 -78.1333 195° South 174 200 4,500  Level Potomac TRACON
10:41PM 38.2000 -78.1500 195° South 174 200 4,500  Level Potomac TRACON
10:42PM 38.1667 -78.1667 201° Southwest 175 201 4,500  Level Potomac TRACON
10:43PM 38.1167 -78.1667 180° South 172 198 4,500  Level Potomac TRACON
10:44PM 38.0667 -78.1833 195° South 176 203 4,500  Level Potomac TRACON
10:45PM 38.0167 -78.2000 195° South 177 204 4,500  Level Potomac TRACON
10:46PM 37.9667 -78.2167 195° South 175 201 4,500  Level Potomac TRACON
10:47PM 37.9167 -78.2333 195° South 174 200 4,500  Level Potomac TRACON
10:48PM 37.8833 -78.2333 180° South 183 211 4,500  Level Potomac TRACON
10:49PM 37.8478 -78.2506 201° Southwest 178 205 4,500  Level Washington Center
10:50PM 37.8014 -78.2647 194° South 178 205 4,500  Level Washington Center
10:51PM 37.7572 -78.2789 194° South 178 205 4,500  Level Washington Center
10:52PM 37.7111 -78.2903 191° South 178 205 4,500  Level Washington Center
10:53PM 37.6650 -78.3019 191° South 178 205 4,500  Level Washington Center
10:54PM 37.6167 -78.3158 193° South 183 211 4,500  Level Washington Center
10:55PM 37.5728 -78.3272 192° South 183 211 4,500  Level Washington Center
10:56PM 37.5203 -78.3439 194° South 183 211 4,500  Level Washington Center
10:57PM 37.4739 -78.3553 191° South 178 205 4,500  Level Washington Center
10:58PM 37.4278 -78.3692 193° South 178 205 4,500  Level Washington Center
10:59PM 37.3817 -78.3806 191° South 178 205 4,500  Level Washington Center
11:00PM 37.3397 -78.3922 192° South 178 205 4,500  Level Washington Center
11:01PM 37.2936 -78.4036 191° South 178 205 4,500 -180 Level Washington Center
11:02PM 37.2431 -78.4172 192° South 183 211 4,200 -180 Descending Washington Center
11:03PM 37.1969 -78.4314 194° South 183 211 4,200  Level Washington Center
11:04PM 37.1444 -78.4475 194° South 183 211 4,200  Level Washington Center
11:05PM 37.0983 -78.4564 189° South 183 211 4,200  Level Washington Center
11:06PM 37.0500 -78.4700 193° South 183 211 4,200  Level Washington Center
11:07PM 37.0017 -78.4864 195° South 183 211 4,200  Level Washington Center
11:08PM 36.9594 -78.4978 192° South 183 211 4,200 -120 Level Washington Center
11:09PM 36.9092 -78.5089 190° South 183 211 4,000 -240 Descending Washington Center
11:10PM 36.8631 -78.5228 194° South 183 211 3,800 -180 Descending Washington Center
11:11PM 36.8106 -78.5364 192° South 183 211 3,700 -60 Descending Washington Center
11:12PM 36.7600 -78.5528 195° South 183 211 3,700  Level Washington Center
11:13PM 36.7075 -78.5714 196° South 183 211 3,700 -120 Level Washington Center
11:14PM 36.6547 -78.5900 196° South 188 216 3,500 -240 Descending Washington Center
11:15PM 36.6083 -78.6064 196° South 190 219 3,300 -240 Descending Washington Center
11:16PM 36.5558 -78.6250 196° South 188 216 3,100 -240 Descending Washington Center
11:16PM 36.5136 -78.6414 197° South 186 214 2,900 -240 Descending Washington Center
11:17PM 36.4633 -78.6575 194° South 187 215 2,700 -180 Descending Washington Center
11:18PM 36.4128 -78.6736 194° South 189 217 2,600 -60 Descending Washington Center
11:19PM 36.3622 -78.6922 197° South 187 215 2,600  Level Washington Center
11:20PM 36.3219 -78.7089 198° South 184 212 2,600  Level Washington Center
11:21PM 36.3094 -78.7108 187° South 188 216 2,600  Level Washington Center
11:21PM 36.2675 -78.7247 195° South 187 215 2,600  Level Washington Center
11:22PM 36.2169 -78.7433 197° South 187 215 2,600  Level Washington Center
11:23PM 36.1664 -78.7592 194° South 186 214 2,600  Level Washington Center
11:24PM 36.1158 -78.7778 197° South 187 215 2,600  Level Washington Center
11:25PM 36.0631 -78.7986 198° South 188 216 2,600  Level Washington Center
11:26PM 36.0164 -78.8225 202° Southwest 190 219 2,600  Level Washington Center
11:27PM 35.9719 -78.8489 206° Southwest 190 219 2,600  Level Washington Center
11:28PM 35.9253 -78.8753 205° Southwest 189 217 2,600 -60 Level Washington Center
11:29PM 35.8744 -78.9039 205° Southwest 190 219 2,500 -300 Descending Washington Center
11:30PM 35.8375 -78.8792 152° Southeast 166 191 2,000 -600 Descending Washington Center
11:31PM 35.8306 -78.8353 101° East 128 147 1,400 -600 Descending Washington Center
11:32PM 35.8542 -78.8108 40° Northeast 92 106 800 -600 Descending Washington Center
11:34PM 35.8667 -78.7833 90° East  Level FlightAware Approximate
11:41PM 35.8776 -78.7875 90° East  Level Estimated
11:42PM 35.8776 -78.7875 90° East  Level Estimated